sensor_id;sensor_type;location;lat;lon;timestamp;temperature;humidity
45983;DHT22;31711;47.158;7.346;2024-03-08T00:02:03;1.10;99.90
45983;DHT22;31711;47.158;7.346;2024-03-08T00:04:29;1.10;99.90
45983;DHT22;31711;47.158;7.346;2024-03-08T00:06:55;1.10;99.90
45983;DHT22;31711;47.158;7.346;2024-03-08T00:09:21;1.00;99.90
45983;DHT22;31711;47.158;7.346;2024-03-08T00:11:47;1.10;99.90
45983;DHT22;31711;47.158;7.346;2024-03-08T00:14:16;1.10;99.90
45983;DHT22;31711;47.158;7.346;2024-03-08T00:16:42;1.00;99.90
45983;DHT22;31711;47.158;7.346;2024-03-08T00:19:09;1.00;99.90
45983;DHT22;31711;47.158;7.346;2024-03-08T00:21:35;0.90;99.90
45983;DHT22;31711;47.158;7.346;2024-03-08T00:24:01;0.90;99.90
45983;DHT22;31711;47.158;7.346;2024-03-08T00:26:27;0.90;99.90
45983;DHT22;31711;47.158;7.346;2024-03-08T00:28:55;0.90;99.90
45983;DHT22;31711;47.158;7.346;2024-03-08T00:31:21;0.90;99.90
45983;DHT22;31711;47.158;7.346;2024-03-08T00:33:47;0.90;99.90
45983;DHT22;31711;47.158;7.346;2024-03-08T00:36:13;0.80;99.90
45983;DHT22;31711;47.158;7.346;2024-03-08T00:38:39;0.80;99.90
45983;DHT22;31711;47.158;7.346;2024-03-08T00:41:05;0.80;99.90
45983;DHT22;31711;47.158;7.346;2024-03-08T00:43:31;0.70;99.90
45983;DHT22;31711;47.158;7.346;2024-03-08T00:45:57;0.70;99.90
45983;DHT22;31711;47.158;7.346;2024-03-08T00:48:23;0.70;99.90
45983;DHT22;31711;47.158;7.346;2024-03-08T00:50:50;0.70;99.90
45983;DHT22;31711;47.158;7.346;2024-03-08T00:53:15;0.70;99.90
45983;DHT22;31711;47.158;7.346;2024-03-08T00:55:42;0.60;99.90
45983;DHT22;31711;47.158;7.346;2024-03-08T00:58:08;0.60;99.90
45983;DHT22;31711;47.158;7.346;2024-03-08T01:00:35;0.50;99.90
45983;DHT22;31711;47.158;7.346;2024-03-08T01:03:01;0.60;99.90
45983;DHT22;31711;47.158;7.346;2024-03-08T01:05:29;0.50;99.90
45983;DHT22;31711;47.158;7.346;2024-03-08T01:07:55;0.50;99.90
45983;DHT22;31711;47.158;7.346;2024-03-08T01:10:21;0.50;99.90
45983;DHT22;31711;47.158;7.346;2024-03-08T01:12:47;0.40;99.90
45983;DHT22;31711;47.158;7.346;2024-03-08T01:15:13;0.50;99.90
45983;DHT22;31711;47.158;7.346;2024-03-08T01:17:39;0.50;99.90
45983;DHT22;31711;47.158;7.346;2024-03-08T01:20:05;0.50;99.90
45983;DHT22;31711;47.158;7.346;2024-03-08T01:22:34;0.50;99.90
45983;DHT22;31711;47.158;7.346;2024-03-08T01:25:00;0.40;99.90
45983;DHT22;31711;47.158;7.346;2024-03-08T01:27:26;0.40;99.90
45983;DHT22;31711;47.158;7.346;2024-03-08T01:29:52;0.40;99.90
45983;DHT22;31711;47.158;7.346;2024-03-08T01:32:18;0.40;99.90
45983;DHT22;31711;47.158;7.346;2024-03-08T01:34:45;0.40;99.90
45983;DHT22;31711;47.158;7.346;2024-03-08T01:37:11;0.40;99.90
45983;DHT22;31711;47.158;7.346;2024-03-08T01:39:37;0.40;99.90
45983;DHT22;31711;47.158;7.346;2024-03-08T01:42:03;0.30;99.90
45983;DHT22;31711;47.158;7.346;2024-03-08T01:44:32;0.40;99.90
45983;DHT22;31711;47.158;7.346;2024-03-08T01:46:58;0.40;99.90
45983;DHT22;31711;47.158;7.346;2024-03-08T01:49:26;0.40;99.90
45983;DHT22;31711;47.158;7.346;2024-03-08T01:51:53;0.40;99.90
45983;DHT22;31711;47.158;7.346;2024-03-08T01:54:19;0.30;99.90
45983;DHT22;31711;47.158;7.346;2024-03-08T01:56:46;0.30;99.90
45983;DHT22;31711;47.158;7.346;2024-03-08T01:59:13;0.30;99.90
45983;DHT22;31711;47.158;7.346;2024-03-08T02:01:40;0.30;99.90
45983;DHT22;31711;47.158;7.346;2024-03-08T02:04:06;0.30;99.90
45983;DHT22;31711;47.158;7.346;2024-03-08T02:06:33;0.40;99.90
45983;DHT22;31711;47.158;7.346;2024-03-08T02:08:59;0.40;99.90
45983;DHT22;31711;47.158;7.346;2024-03-08T02:11:26;0.40;99.90
45983;DHT22;31711;47.158;7.346;2024-03-08T02:13:52;0.30;99.90
45983;DHT22;31711;47.158;7.346;2024-03-08T02:16:21;0.30;99.90
45983;DHT22;31711;47.158;7.346;2024-03-08T02:18:48;0.30;99.90
45983;DHT22;31711;47.158;7.346;2024-03-08T02:21:17;0.20;99.90
45983;DHT22;31711;47.158;7.346;2024-03-08T02:23:46;0.20;99.90
45983;DHT22;31711;47.158;7.346;2024-03-08T02:26:12;0.20;99.90
45983;DHT22;31711;47.158;7.346;2024-03-08T02:28:41;0.20;99.90
45983;DHT22;31711;47.158;7.346;2024-03-08T02:31:09;0.20;99.90
45983;DHT22;31711;47.158;7.346;2024-03-08T02:33:35;0.10;99.90
45983;DHT22;31711;47.158;7.346;2024-03-08T02:36:01;0.10;99.90
45983;DHT22;31711;47.158;7.346;2024-03-08T02:38:27;0.10;99.90
45983;DHT22;31711;47.158;7.346;2024-03-08T02:40:54;0.10;99.90
45983;DHT22;31711;47.158;7.346;2024-03-08T02:43:21;0.20;99.90
45983;DHT22;31711;47.158;7.346;2024-03-08T02:45:50;0.30;99.90
45983;DHT22;31711;47.158;7.346;2024-03-08T02:48:18;0.30;99.90
45983;DHT22;31711;47.158;7.346;2024-03-08T02:50:44;0.30;99.90
45983;DHT22;31711;47.158;7.346;2024-03-08T02:53:11;0.30;99.90
45983;DHT22;31711;47.158;7.346;2024-03-08T02:55:38;0.30;99.90
45983;DHT22;31711;47.158;7.346;2024-03-08T02:58:05;0.40;99.90
45983;DHT22;31711;47.158;7.346;2024-03-08T03:00:31;0.40;99.90
45983;DHT22;31711;47.158;7.346;2024-03-08T03:02:58;0.30;99.90
45983;DHT22;31711;47.158;7.346;2024-03-08T03:05:24;0.30;99.90
45983;DHT22;31711;47.158;7.346;2024-03-08T03:07:51;0.40;99.90
45983;DHT22;31711;47.158;7.346;2024-03-08T03:10:17;0.40;99.90
45983;DHT22;31711;47.158;7.346;2024-03-08T03:12:44;0.50;99.90
45983;DHT22;31711;47.158;7.346;2024-03-08T03:15:12;0.60;99.90
45983;DHT22;31711;47.158;7.346;2024-03-08T03:17:41;0.60;99.90
45983;DHT22;31711;47.158;7.346;2024-03-08T03:20:08;0.50;99.90
45983;DHT22;31711;47.158;7.346;2024-03-08T03:22:40;0.60;99.90
45983;DHT22;31711;47.158;7.346;2024-03-08T03:25:07;0.70;99.90
45983;DHT22;31711;47.158;7.346;2024-03-08T03:27:33;0.80;99.90
45983;DHT22;31711;47.158;7.346;2024-03-08T03:29:59;0.90;99.90
45983;DHT22;31711;47.158;7.346;2024-03-08T03:32:45;1.00;99.90
45983;DHT22;31711;47.158;7.346;2024-03-08T03:35:13;1.00;99.90
45983;DHT22;31711;47.158;7.346;2024-03-08T03:37:41;1.00;99.90
45983;DHT22;31711;47.158;7.346;2024-03-08T03:40:09;1.10;99.90
45983;DHT22;31711;47.158;7.346;2024-03-08T03:42:35;1.00;99.90
45983;DHT22;31711;47.158;7.346;2024-03-08T03:45:05;1.00;99.90
45983;DHT22;31711;47.158;7.346;2024-03-08T03:47:31;1.00;99.90
45983;DHT22;31711;47.158;7.346;2024-03-08T03:49:57;1.00;99.90
45983;DHT22;31711;47.158;7.346;2024-03-08T03:52:27;1.00;99.90
45983;DHT22;31711;47.158;7.346;2024-03-08T03:54:53;1.10;99.90
45983;DHT22;31711;47.158;7.346;2024-03-08T03:57:19;1.10;99.90
45983;DHT22;31711;47.158;7.346;2024-03-08T03:59:45;1.10;99.90
45983;DHT22;31711;47.158;7.346;2024-03-08T04:02:13;1.30;99.90
45983;DHT22;31711;47.158;7.346;2024-03-08T04:04:39;1.30;99.90
45983;DHT22;31711;47.158;7.346;2024-03-08T04:07:05;1.40;99.90
45983;DHT22;31711;47.158;7.346;2024-03-08T04:09:31;1.50;99.90
45983;DHT22;31711;47.158;7.346;2024-03-08T04:11:57;1.60;99.90
45983;DHT22;31711;47.158;7.346;2024-03-08T04:14:23;1.50;99.90
45983;DHT22;31711;47.158;7.346;2024-03-08T04:16:49;1.60;99.90
45983;DHT22;31711;47.158;7.346;2024-03-08T04:19:15;1.70;99.90
45983;DHT22;31711;47.158;7.346;2024-03-08T04:21:41;1.70;99.90
45983;DHT22;31711;47.158;7.346;2024-03-08T04:24:07;1.80;99.90
45983;DHT22;31711;47.158;7.346;2024-03-08T04:26:34;1.80;99.90
45983;DHT22;31711;47.158;7.346;2024-03-08T04:29:00;1.70;99.90
45983;DHT22;31711;47.158;7.346;2024-03-08T04:31:27;1.70;99.90
45983;DHT22;31711;47.158;7.346;2024-03-08T04:33:53;1.70;99.90
45983;DHT22;31711;47.158;7.346;2024-03-08T04:36:18;1.70;99.90
45983;DHT22;31711;47.158;7.346;2024-03-08T04:38:45;1.70;99.90
45983;DHT22;31711;47.158;7.346;2024-03-08T04:41:11;1.70;99.90
45983;DHT22;31711;47.158;7.346;2024-03-08T04:43:37;1.70;99.90
45983;DHT22;31711;47.158;7.346;2024-03-08T04:46:03;1.70;99.90
45983;DHT22;31711;47.158;7.346;2024-03-08T04:48:31;1.80;99.90
45983;DHT22;31711;47.158;7.346;2024-03-08T04:50:57;1.80;99.90
45983;DHT22;31711;47.158;7.346;2024-03-08T04:53:23;1.80;99.90
45983;DHT22;31711;47.158;7.346;2024-03-08T04:55:49;1.80;99.90
45983;DHT22;31711;47.158;7.346;2024-03-08T04:58:15;1.80;99.90
45983;DHT22;31711;47.158;7.346;2024-03-08T05:00:41;1.80;99.90
45983;DHT22;31711;47.158;7.346;2024-03-08T05:03:07;1.70;99.90
45983;DHT22;31711;47.158;7.346;2024-03-08T05:05:33;1.80;99.90
45983;DHT22;31711;47.158;7.346;2024-03-08T05:07:59;1.80;99.90
45983;DHT22;31711;47.158;7.346;2024-03-08T05:10:27;1.80;99.90
45983;DHT22;31711;47.158;7.346;2024-03-08T05:12:53;1.70;99.90
45983;DHT22;31711;47.158;7.346;2024-03-08T05:15:19;1.80;99.90
45983;DHT22;31711;47.158;7.346;2024-03-08T05:17:46;1.70;99.90
45983;DHT22;31711;47.158;7.346;2024-03-08T05:20:12;1.70;99.90
45983;DHT22;31711;47.158;7.346;2024-03-08T05:22:39;1.70;99.90
45983;DHT22;31711;47.158;7.346;2024-03-08T05:25:06;1.60;99.90
45983;DHT22;31711;47.158;7.346;2024-03-08T05:27:34;1.60;99.90
45983;DHT22;31711;47.158;7.346;2024-03-08T05:30:03;1.60;99.90
45983;DHT22;31711;47.158;7.346;2024-03-08T05:32:31;1.50;99.90
45983;DHT22;31711;47.158;7.346;2024-03-08T05:34:57;1.50;99.90
45983;DHT22;31711;47.158;7.346;2024-03-08T05:37:23;1.40;99.90
45983;DHT22;31711;47.158;7.346;2024-03-08T05:39:49;1.20;99.90
45983;DHT22;31711;47.158;7.346;2024-03-08T05:42:15;1.10;99.90
45983;DHT22;31711;47.158;7.346;2024-03-08T05:44:41;1.30;99.90
45983;DHT22;31711;47.158;7.346;2024-03-08T05:47:07;1.40;99.90
45983;DHT22;31711;47.158;7.346;2024-03-08T05:49:35;1.60;99.90
45983;DHT22;31711;47.158;7.346;2024-03-08T05:52:01;1.60;99.90
45983;DHT22;31711;47.158;7.346;2024-03-08T05:54:27;1.80;99.90
45983;DHT22;31711;47.158;7.346;2024-03-08T05:56:53;1.80;99.90
45983;DHT22;31711;47.158;7.346;2024-03-08T05:59:20;1.80;99.90
45983;DHT22;31711;47.158;7.346;2024-03-08T06:01:46;1.90;99.90
45983;DHT22;31711;47.158;7.346;2024-03-08T06:04:12;1.90;99.90
45983;DHT22;31711;47.158;7.346;2024-03-08T06:06:40;2.00;99.90
45983;DHT22;31711;47.158;7.346;2024-03-08T06:09:05;2.00;99.90
45983;DHT22;31711;47.158;7.346;2024-03-08T06:11:37;1.90;99.90
45983;DHT22;31711;47.158;7.346;2024-03-08T06:14:03;2.10;99.90
45983;DHT22;31711;47.158;7.346;2024-03-08T06:16:29;2.10;99.90
45983;DHT22;31711;47.158;7.346;2024-03-08T06:18:58;2.10;99.90
45983;DHT22;31711;47.158;7.346;2024-03-08T06:21:25;2.10;99.90
45983;DHT22;31711;47.158;7.346;2024-03-08T06:23:54;2.20;99.90
45983;DHT22;31711;47.158;7.346;2024-03-08T06:26:26;2.30;99.90
45983;DHT22;31711;47.158;7.346;2024-03-08T06:28:54;2.30;99.90
45983;DHT22;31711;47.158;7.346;2024-03-08T06:31:21;2.40;99.90
45983;DHT22;31711;47.158;7.346;2024-03-08T06:33:46;2.50;99.90
45983;DHT22;31711;47.158;7.346;2024-03-08T06:36:16;2.50;99.90
45983;DHT22;31711;47.158;7.346;2024-03-08T06:38:48;2.50;99.90
45983;DHT22;31711;47.158;7.346;2024-03-08T06:41:14;2.60;99.90
45983;DHT22;31711;47.158;7.346;2024-03-08T06:43:44;2.70;99.90
45983;DHT22;31711;47.158;7.346;2024-03-08T06:46:11;2.70;99.90
45983;DHT22;31711;47.158;7.346;2024-03-08T06:48:40;2.70;99.90
45983;DHT22;31711;47.158;7.346;2024-03-08T06:51:06;2.70;99.90
45983;DHT22;31711;47.158;7.346;2024-03-08T06:53:32;2.70;99.90
45983;DHT22;31711;47.158;7.346;2024-03-08T06:55:58;2.70;99.90
45983;DHT22;31711;47.158;7.346;2024-03-08T06:58:24;2.70;99.90
45983;DHT22;31711;47.158;7.346;2024-03-08T07:00:50;2.80;99.90
45983;DHT22;31711;47.158;7.346;2024-03-08T07:03:18;2.90;99.90
45983;DHT22;31711;47.158;7.346;2024-03-08T07:05:44;2.90;99.90
45983;DHT22;31711;47.158;7.346;2024-03-08T07:08:10;2.90;99.90
45983;DHT22;31711;47.158;7.346;2024-03-08T07:10:40;3.00;99.90
45983;DHT22;31711;47.158;7.346;2024-03-08T07:13:08;3.00;99.90
45983;DHT22;31711;47.158;7.346;2024-03-08T07:15:34;3.00;99.90
45983;DHT22;31711;47.158;7.346;2024-03-08T07:18:01;2.90;99.90
45983;DHT22;31711;47.158;7.346;2024-03-08T07:20:27;2.90;99.90
45983;DHT22;31711;47.158;7.346;2024-03-08T07:22:54;2.90;99.90
45983;DHT22;31711;47.158;7.346;2024-03-08T07:25:20;2.90;99.90
45983;DHT22;31711;47.158;7.346;2024-03-08T07:27:53;3.00;99.90
45983;DHT22;31711;47.158;7.346;2024-03-08T07:30:24;3.00;99.90
45983;DHT22;31711;47.158;7.346;2024-03-08T07:33:09;3.00;99.90
45983;DHT22;31711;47.158;7.346;2024-03-08T07:35:38;3.20;99.90
45983;DHT22;31711;47.158;7.346;2024-03-08T07:38:05;3.30;99.90
45983;DHT22;31711;47.158;7.346;2024-03-08T07:40:35;3.10;99.90
45983;DHT22;31711;47.158;7.346;2024-03-08T07:43:01;3.10;99.90
45983;DHT22;31711;47.158;7.346;2024-03-08T07:45:28;3.20;99.90
45983;DHT22;31711;47.158;7.346;2024-03-08T07:47:53;3.30;99.90
45983;DHT22;31711;47.158;7.346;2024-03-08T07:50:19;3.40;99.90
45983;DHT22;31711;47.158;7.346;2024-03-08T07:52:48;3.50;99.90
45983;DHT22;31711;47.158;7.346;2024-03-08T07:55:14;3.50;99.90
45983;DHT22;31711;47.158;7.346;2024-03-08T07:57:40;3.50;99.90
45983;DHT22;31711;47.158;7.346;2024-03-08T08:00:08;3.40;99.90
45983;DHT22;31711;47.158;7.346;2024-03-08T08:02:36;3.60;99.90
45983;DHT22;31711;47.158;7.346;2024-03-08T08:05:02;3.50;99.90
45983;DHT22;31711;47.158;7.346;2024-03-08T08:07:29;3.40;99.90
45983;DHT22;31711;47.158;7.346;2024-03-08T08:09:55;3.60;99.90
45983;DHT22;31711;47.158;7.346;2024-03-08T08:12:21;3.60;99.90
45983;DHT22;31711;47.158;7.346;2024-03-08T08:14:47;3.70;99.90
45983;DHT22;31711;47.158;7.346;2024-03-08T08:17:13;3.90;99.90
45983;DHT22;31711;47.158;7.346;2024-03-08T08:19:41;4.00;99.90
45983;DHT22;31711;47.158;7.346;2024-03-08T08:22:07;3.90;99.90
45983;DHT22;31711;47.158;7.346;2024-03-08T08:24:34;3.70;99.90
45983;DHT22;31711;47.158;7.346;2024-03-08T08:27:03;3.70;99.90
45983;DHT22;31711;47.158;7.346;2024-03-08T08:29:29;3.80;99.90
45983;DHT22;31711;47.158;7.346;2024-03-08T08:31:58;3.80;99.90
45983;DHT22;31711;47.158;7.346;2024-03-08T08:34:25;3.80;99.90
45983;DHT22;31711;47.158;7.346;2024-03-08T08:36:52;3.70;99.90
45983;DHT22;31711;47.158;7.346;2024-03-08T08:39:19;3.80;99.90
45983;DHT22;31711;47.158;7.346;2024-03-08T08:41:45;3.90;99.90
45983;DHT22;31711;47.158;7.346;2024-03-08T08:44:11;3.80;99.90
45983;DHT22;31711;47.158;7.346;2024-03-08T08:46:38;4.00;99.90
45983;DHT22;31711;47.158;7.346;2024-03-08T08:49:05;3.70;99.90
45983;DHT22;31711;47.158;7.346;2024-03-08T08:51:32;3.90;99.90
45983;DHT22;31711;47.158;7.346;2024-03-08T08:53:59;4.00;99.90
45983;DHT22;31711;47.158;7.346;2024-03-08T08:56:25;4.10;99.90
45983;DHT22;31711;47.158;7.346;2024-03-08T08:58:52;4.00;99.90
45983;DHT22;31711;47.158;7.346;2024-03-08T09:01:21;4.10;99.90
45983;DHT22;31711;47.158;7.346;2024-03-08T09:03:47;4.10;99.90
45983;DHT22;31711;47.158;7.346;2024-03-08T09:06:13;4.00;99.90
45983;DHT22;31711;47.158;7.346;2024-03-08T09:08:39;4.00;99.90
45983;DHT22;31711;47.158;7.346;2024-03-08T09:11:05;4.00;99.90
45983;DHT22;31711;47.158;7.346;2024-03-08T09:13:32;4.10;99.90
45983;DHT22;31711;47.158;7.346;2024-03-08T09:16:00;4.30;99.90
45983;DHT22;31711;47.158;7.346;2024-03-08T09:18:26;4.40;99.90
45983;DHT22;31711;47.158;7.346;2024-03-08T09:20:52;4.40;99.90
45983;DHT22;31711;47.158;7.346;2024-03-08T09:23:20;4.50;99.90
45983;DHT22;31711;47.158;7.346;2024-03-08T09:25:46;4.70;99.90
45983;DHT22;31711;47.158;7.346;2024-03-08T09:28:12;4.90;99.90
45983;DHT22;31711;47.158;7.346;2024-03-08T09:30:38;4.90;99.90
45983;DHT22;31711;47.158;7.346;2024-03-08T09:33:05;4.90;99.90
45983;DHT22;31711;47.158;7.346;2024-03-08T09:35:32;5.10;99.90
45983;DHT22;31711;47.158;7.346;2024-03-08T09:37:58;5.20;99.90
45983;DHT22;31711;47.158;7.346;2024-03-08T09:40:24;5.40;99.90
45983;DHT22;31711;47.158;7.346;2024-03-08T09:42:51;5.40;99.90
45983;DHT22;31711;47.158;7.346;2024-03-08T09:45:20;5.70;99.90
45983;DHT22;31711;47.158;7.346;2024-03-08T09:47:50;5.70;99.90
45983;DHT22;31711;47.158;7.346;2024-03-08T09:50:16;5.40;99.90
45983;DHT22;31711;47.158;7.346;2024-03-08T09:52:47;5.50;99.90
45983;DHT22;31711;47.158;7.346;2024-03-08T09:55:13;5.60;99.90
45983;DHT22;31711;47.158;7.346;2024-03-08T09:57:43;5.80;99.90
45983;DHT22;31711;47.158;7.346;2024-03-08T10:00:29;5.90;99.90
45983;DHT22;31711;47.158;7.346;2024-03-08T10:03:01;6.20;99.90
45983;DHT22;31711;47.158;7.346;2024-03-08T10:05:27;6.00;99.90
45983;DHT22;31711;47.158;7.346;2024-03-08T10:07:53;5.90;99.90
45983;DHT22;31711;47.158;7.346;2024-03-08T10:10:19;5.80;99.90
45983;DHT22;31711;47.158;7.346;2024-03-08T10:12:46;6.10;99.90
45983;DHT22;31711;47.158;7.346;2024-03-08T10:15:12;6.00;99.90
45983;DHT22;31711;47.158;7.346;2024-03-08T10:17:38;6.10;99.90
45983;DHT22;31711;47.158;7.346;2024-03-08T10:20:14;6.10;99.90
45983;DHT22;31711;47.158;7.346;2024-03-08T10:22:41;6.10;99.90
45983;DHT22;31711;47.158;7.346;2024-03-08T10:25:11;6.20;99.90
45983;DHT22;31711;47.158;7.346;2024-03-08T10:27:40;6.20;99.90
45983;DHT22;31711;47.158;7.346;2024-03-08T10:30:24;6.40;99.90
45983;DHT22;31711;47.158;7.346;2024-03-08T10:32:50;6.70;99.90
45983;DHT22;31711;47.158;7.346;2024-03-08T10:35:18;7.10;99.90
45983;DHT22;31711;47.158;7.346;2024-03-08T10:37:48;6.60;99.90
45983;DHT22;31711;47.158;7.346;2024-03-08T10:40:19;6.70;99.90
45983;DHT22;31711;47.158;7.346;2024-03-08T10:42:55;7.00;99.90
45983;DHT22;31711;47.158;7.346;2024-03-08T10:45:35;6.90;99.90
45983;DHT22;31711;47.158;7.346;2024-03-08T10:48:12;7.00;99.90
45983;DHT22;31711;47.158;7.346;2024-03-08T10:50:42;7.40;99.90
45983;DHT22;31711;47.158;7.346;2024-03-08T10:53:11;7.50;99.90
45983;DHT22;31711;47.158;7.346;2024-03-08T10:55:40;7.10;99.90
45983;DHT22;31711;47.158;7.346;2024-03-08T10:58:07;6.70;99.90
45983;DHT22;31711;47.158;7.346;2024-03-08T11:00:34;6.70;99.90
45983;DHT22;31711;47.158;7.346;2024-03-08T11:03:01;7.20;99.90
45983;DHT22;31711;47.158;7.346;2024-03-08T11:05:40;7.30;99.90
45983;DHT22;31711;47.158;7.346;2024-03-08T11:08:19;7.40;99.90
45983;DHT22;31711;47.158;7.346;2024-03-08T11:13:35;8.10;99.90
45983;DHT22;31711;47.158;7.346;2024-03-08T11:16:06;7.80;99.90
45983;DHT22;31711;47.158;7.346;2024-03-08T11:18:33;8.10;99.90
45983;DHT22;31711;47.158;7.346;2024-03-08T11:21:09;8.30;99.90
45983;DHT22;31711;47.158;7.346;2024-03-08T11:23:40;8.50;99.90
45983;DHT22;31711;47.158;7.346;2024-03-08T11:26:19;8.70;99.90
45983;DHT22;31711;47.158;7.346;2024-03-08T11:28:45;8.50;99.90
45983;DHT22;31711;47.158;7.346;2024-03-08T11:33:40;8.90;99.90
45983;DHT22;31711;47.158;7.346;2024-03-08T11:36:23;8.90;99.90
45983;DHT22;31711;47.158;7.346;2024-03-08T11:38:51;8.90;99.90
45983;DHT22;31711;47.158;7.346;2024-03-08T11:41:25;8.70;99.90
45983;DHT22;31711;47.158;7.346;2024-03-08T11:44:03;8.50;99.90
45983;DHT22;31711;47.158;7.346;2024-03-08T11:46:32;8.40;99.90
45983;DHT22;31711;47.158;7.346;2024-03-08T11:49:00;8.10;99.90
45983;DHT22;31711;47.158;7.346;2024-03-08T11:51:26;8.00;99.90
45983;DHT22;31711;47.158;7.346;2024-03-08T11:53:53;8.00;99.90
45983;DHT22;31711;47.158;7.346;2024-03-08T11:56:19;8.40;99.90
45983;DHT22;31711;47.158;7.346;2024-03-08T11:58:55;8.10;99.90
45983;DHT22;31711;47.158;7.346;2024-03-08T12:01:24;8.20;99.90
45983;DHT22;31711;47.158;7.346;2024-03-08T12:03:54;7.70;99.90
45983;DHT22;31711;47.158;7.346;2024-03-08T12:06:21;7.40;99.90
45983;DHT22;31711;47.158;7.346;2024-03-08T12:08:47;7.60;99.90
45983;DHT22;31711;47.158;7.346;2024-03-08T12:11:19;7.60;99.90
45983;DHT22;31711;47.158;7.346;2024-03-08T12:13:49;7.40;99.90
45983;DHT22;31711;47.158;7.346;2024-03-08T12:16:18;7.60;99.90
45983;DHT22;31711;47.158;7.346;2024-03-08T12:18:44;7.40;99.90
45983;DHT22;31711;47.158;7.346;2024-03-08T12:21:12;7.60;99.90
45983;DHT22;31711;47.158;7.346;2024-03-08T12:23:40;7.80;99.90
45983;DHT22;31711;47.158;7.346;2024-03-08T12:26:17;7.80;99.90
45983;DHT22;31711;47.158;7.346;2024-03-08T12:28:45;7.50;99.90
45983;DHT22;31711;47.158;7.346;2024-03-08T12:31:17;7.10;99.90
45983;DHT22;31711;47.158;7.346;2024-03-08T12:33:52;7.20;99.90
45983;DHT22;31711;47.158;7.346;2024-03-08T12:36:19;7.40;99.90
45983;DHT22;31711;47.158;7.346;2024-03-08T12:38:47;7.50;99.90
45983;DHT22;31711;47.158;7.346;2024-03-08T12:41:16;7.70;99.90
45983;DHT22;31711;47.158;7.346;2024-03-08T12:43:46;7.60;99.90
45983;DHT22;31711;47.158;7.346;2024-03-08T12:46:19;8.00;99.90
45983;DHT22;31711;47.158;7.346;2024-03-08T12:48:49;8.30;99.90
45983;DHT22;31711;47.158;7.346;2024-03-08T12:51:18;8.00;99.90
45983;DHT22;31711;47.158;7.346;2024-03-08T12:53:45;8.00;99.90
45983;DHT22;31711;47.158;7.346;2024-03-08T12:56:20;8.20;99.90
45983;DHT22;31711;47.158;7.346;2024-03-08T12:58:54;8.60;99.90
45983;DHT22;31711;47.158;7.346;2024-03-08T13:01:20;8.70;99.90
45983;DHT22;31711;47.158;7.346;2024-03-08T13:03:46;8.70;99.90
45983;DHT22;31711;47.158;7.346;2024-03-08T13:06:12;9.00;99.90
45983;DHT22;31711;47.158;7.346;2024-03-08T13:08:38;9.20;99.90
45983;DHT22;31711;47.158;7.346;2024-03-08T13:11:07;9.30;99.90
45983;DHT22;31711;47.158;7.346;2024-03-08T13:13:34;9.00;99.90
45983;DHT22;31711;47.158;7.346;2024-03-08T13:16:04;9.10;99.90
45983;DHT22;31711;47.158;7.346;2024-03-08T13:18:34;9.10;99.90
45983;DHT22;31711;47.158;7.346;2024-03-08T13:21:00;8.50;99.90
45983;DHT22;31711;47.158;7.346;2024-03-08T13:23:30;8.30;99.90
45983;DHT22;31711;47.158;7.346;2024-03-08T13:25:56;7.80;99.90
45983;DHT22;31711;47.158;7.346;2024-03-08T13:28:26;8.00;99.90
45983;DHT22;31711;47.158;7.346;2024-03-08T13:30:55;7.80;99.90
45983;DHT22;31711;47.158;7.346;2024-03-08T13:33:23;7.80;99.90
45983;DHT22;31711;47.158;7.346;2024-03-08T13:35:49;7.80;99.90
45983;DHT22;31711;47.158;7.346;2024-03-08T13:38:16;8.10;99.90
45983;DHT22;31711;47.158;7.346;2024-03-08T13:40:46;8.30;99.90
45983;DHT22;31711;47.158;7.346;2024-03-08T13:43:12;8.30;99.90
45983;DHT22;31711;47.158;7.346;2024-03-08T13:45:38;8.30;99.90
45983;DHT22;31711;47.158;7.346;2024-03-08T13:48:04;8.10;99.90
45983;DHT22;31711;47.158;7.346;2024-03-08T13:50:31;7.90;99.90
45983;DHT22;31711;47.158;7.346;2024-03-08T13:52:57;8.20;99.90
45983;DHT22;31711;47.158;7.346;2024-03-08T13:55:23;8.00;99.90
45983;DHT22;31711;47.158;7.346;2024-03-08T13:57:52;8.10;99.90
45983;DHT22;31711;47.158;7.346;2024-03-08T14:00:18;8.20;99.90
45983;DHT22;31711;47.158;7.346;2024-03-08T14:02:48;8.00;99.90
45983;DHT22;31711;47.158;7.346;2024-03-08T14:05:14;8.20;99.90
45983;DHT22;31711;47.158;7.346;2024-03-08T14:07:41;8.20;99.90
45983;DHT22;31711;47.158;7.346;2024-03-08T14:10:08;8.30;99.90
45983;DHT22;31711;47.158;7.346;2024-03-08T14:12:35;8.40;99.90
45983;DHT22;31711;47.158;7.346;2024-03-08T14:15:02;8.50;99.90
45983;DHT22;31711;47.158;7.346;2024-03-08T14:17:32;8.70;99.90
45983;DHT22;31711;47.158;7.346;2024-03-08T14:19:58;8.60;99.90
45983;DHT22;31711;47.158;7.346;2024-03-08T14:22:24;8.80;99.90
45983;DHT22;31711;47.158;7.346;2024-03-08T14:24:50;8.50;99.90
45983;DHT22;31711;47.158;7.346;2024-03-08T14:27:17;8.70;99.90
45983;DHT22;31711;47.158;7.346;2024-03-08T14:29:44;8.70;99.90
45983;DHT22;31711;47.158;7.346;2024-03-08T14:32:10;8.60;99.90
45983;DHT22;31711;47.158;7.346;2024-03-08T14:34:36;8.70;99.90
45983;DHT22;31711;47.158;7.346;2024-03-08T14:37:02;8.70;99.90
45983;DHT22;31711;47.158;7.346;2024-03-08T14:39:37;9.00;99.90
45983;DHT22;31711;47.158;7.346;2024-03-08T14:42:03;9.00;99.90
45983;DHT22;31711;47.158;7.346;2024-03-08T14:44:30;8.70;99.90
45983;DHT22;31711;47.158;7.346;2024-03-08T14:46:56;8.90;99.90
45983;DHT22;31711;47.158;7.346;2024-03-08T14:49:22;8.60;99.90
45983;DHT22;31711;47.158;7.346;2024-03-08T14:51:48;8.30;99.90
45983;DHT22;31711;47.158;7.346;2024-03-08T14:54:15;8.30;99.90
45983;DHT22;31711;47.158;7.346;2024-03-08T14:56:40;8.10;99.90
45983;DHT22;31711;47.158;7.346;2024-03-08T14:59:07;8.00;99.90
45983;DHT22;31711;47.158;7.346;2024-03-08T15:01:34;7.90;99.90
45983;DHT22;31711;47.158;7.346;2024-03-08T15:04:02;7.90;99.90
45983;DHT22;31711;47.158;7.346;2024-03-08T15:06:38;7.90;99.90
45983;DHT22;31711;47.158;7.346;2024-03-08T15:09:04;8.10;99.90
45983;DHT22;31711;47.158;7.346;2024-03-08T15:11:46;8.10;99.90
45983;DHT22;31711;47.158;7.346;2024-03-08T15:14:14;8.20;99.90
45983;DHT22;31711;47.158;7.346;2024-03-08T15:16:41;8.10;99.90
45983;DHT22;31711;47.158;7.346;2024-03-08T15:19:08;8.00;99.90
45983;DHT22;31711;47.158;7.346;2024-03-08T15:21:35;8.20;99.90
45983;DHT22;31711;47.158;7.346;2024-03-08T15:24:02;8.30;99.90
45983;DHT22;31711;47.158;7.346;2024-03-08T15:26:35;8.40;99.90
45983;DHT22;31711;47.158;7.346;2024-03-08T15:29:01;8.40;99.90
45983;DHT22;31711;47.158;7.346;2024-03-08T15:31:27;8.50;99.90
45983;DHT22;31711;47.158;7.346;2024-03-08T15:33:55;8.40;99.90
45983;DHT22;31711;47.158;7.346;2024-03-08T15:36:32;8.40;99.90
45983;DHT22;31711;47.158;7.346;2024-03-08T15:38:59;8.60;99.90
45983;DHT22;31711;47.158;7.346;2024-03-08T15:41:26;8.50;99.90
45983;DHT22;31711;47.158;7.346;2024-03-08T15:43:52;8.50;99.90
45983;DHT22;31711;47.158;7.346;2024-03-08T15:46:18;8.40;99.90
45983;DHT22;31711;47.158;7.346;2024-03-08T15:48:48;8.30;99.90
45983;DHT22;31711;47.158;7.346;2024-03-08T15:51:15;8.30;99.90
45983;DHT22;31711;47.158;7.346;2024-03-08T15:53:43;8.20;99.90